sensor_id;sensor_type;location;lat;lon;timestamp;pressure;altitude;pressure_sealevel;temperature;humidity
23166;BME280;11751;42.700;24.170;2023-03-26T00:00:44;93293.38;;;11.38;93.39
23166;BME280;11751;42.700;24.170;2023-03-26T00:03:14;93288.53;;;11.39;94.59
23166;BME280;11751;42.700;24.170;2023-03-26T00:05:40;93288.97;;;11.35;94.10
23166;BME280;11751;42.700;24.170;2023-03-26T00:08:07;93284.72;;;11.44;93.68
23166;BME280;11751;42.700;24.170;2023-03-26T00:10:37;93290.31;;;11.44;93.12
23166;BME280;11751;42.700;24.170;2023-03-26T00:13:04;93302.16;;;11.52;91.67
23166;BME280;11751;42.700;24.170;2023-03-26T00:15:31;93310.75;;;11.54;90.83
23166;BME280;11751;42.700;24.170;2023-03-26T00:17:57;93296.09;;;11.46;90.74
23166;BME280;11751;42.700;24.170;2023-03-26T00:20:25;93302.59;;;11.48;90.23
23166;BME280;11751;42.700;24.170;2023-03-26T00:22:52;93298.97;;;11.38;90.10
23166;BME280;11751;42.700;24.170;2023-03-26T00:25:18;93290.84;;;11.33;89.91
23166;BME280;11751;42.700;24.170;2023-03-26T00:27:44;93296.97;;;11.22;90.64
23166;BME280;11751;42.700;24.170;2023-03-26T00:30:10;93301.59;;;11.27;90.40
23166;BME280;11751;42.700;24.170;2023-03-26T00:32:36;93299.19;;;11.23;90.13
23166;BME280;11751;42.700;24.170;2023-03-26T00:35:01;93310.50;;;11.16;90.19
23166;BME280;11751;42.700;24.170;2023-03-26T00:37:28;93313.97;;;11.07;90.73
23166;BME280;11751;42.700;24.170;2023-03-26T00:39:56;93325.19;;;11.07;91.32
23166;BME280;11751;42.700;24.170;2023-03-26T00:42:27;93328.56;;;11.06;92.16
23166;BME280;11751;42.700;24.170;2023-03-26T00:44:53;93334.81;;;11.13;91.42
23166;BME280;11751;42.700;24.170;2023-03-26T00:47:27;93339.66;;;11.13;91.28
23166;BME280;11751;42.700;24.170;2023-03-26T00:49:53;93327.69;;;11.29;90.92
23166;BME280;11751;42.700;24.170;2023-03-26T00:52:19;93327.44;;;11.35;91.45
23166;BME280;11751;42.700;24.170;2023-03-26T00:54:45;93341.28;;;11.33;90.97
23166;BME280;11751;42.700;24.170;2023-03-26T00:57:11;93334.19;;;11.32;91.33
23166;BME280;11751;42.700;24.170;2023-03-26T00:59:38;93329.97;;;11.40;91.03
23166;BME280;11751;42.700;24.170;2023-03-26T01:02:04;93342.59;;;11.49;90.49
23166;BME280;11751;42.700;24.170;2023-03-26T01:04:32;93352.56;;;11.42;90.45
23166;BME280;11751;42.700;24.170;2023-03-26T01:07:28;93338.47;;;11.50;90.86
23166;BME280;11751;42.700;24.170;2023-03-26T01:09:56;93334.69;;;11.38;91.29
23166;BME280;11751;42.700;24.170;2023-03-26T01:12:24;93346.38;;;11.44;89.88
23166;BME280;11751;42.700;24.170;2023-03-26T01:14:52;93331.69;;;11.53;88.91
23166;BME280;11751;42.700;24.170;2023-03-26T01:17:19;93337.31;;;11.53;89.14
23166;BME280;11751;42.700;24.170;2023-03-26T01:22:17;93325.28;;;11.60;88.94
23166;BME280;11751;42.700;24.170;2023-03-26T01:24:43;93316.38;;;11.54;89.58
23166;BME280;11751;42.700;24.170;2023-03-26T01:29:55;93326.25;;;11.55;89.47
23166;BME280;11751;42.700;24.170;2023-03-26T01:40:27;93335.72;;;11.16;91.08
23166;BME280;11751;42.700;24.170;2023-03-26T01:45:31;93318.78;;;10.97;90.64
23166;BME280;11751;42.700;24.170;2023-03-26T01:47:58;93296.81;;;10.77;89.56
23166;BME280;11751;42.700;24.170;2023-03-26T01:50:24;93322.16;;;10.96;88.98
23166;BME280;11751;42.700;24.170;2023-03-26T01:52:50;93327.66;;;10.86;85.53
23166;BME280;11751;42.700;24.170;2023-03-26T01:55:16;93329.72;;;11.03;85.23
23166;BME280;11751;42.700;24.170;2023-03-26T01:58:28;93333.41;;;11.05;87.28
23166;BME280;11751;42.700;24.170;2023-03-26T02:01:01;93337.13;;;11.07;86.57
23166;BME280;11751;42.700;24.170;2023-03-26T02:03:34;93329.22;;;11.13;87.08
23166;BME280;11751;42.700;24.170;2023-03-26T02:06:09;93330.31;;;10.84;85.75
23166;BME280;11751;42.700;24.170;2023-03-26T02:08:44;93322.97;;;10.55;88.64
23166;BME280;11751;42.700;24.170;2023-03-26T02:11:13;93335.09;;;10.57;89.15
23166;BME280;11751;42.700;24.170;2023-03-26T02:13:41;93339.38;;;10.58;88.72
23166;BME280;11751;42.700;24.170;2023-03-26T02:16:10;93321.66;;;10.56;89.63
23166;BME280;11751;42.700;24.170;2023-03-26T02:18:38;93345.19;;;10.53;84.67
23166;BME280;11751;42.700;24.170;2023-03-26T02:21:05;93330.38;;;10.60;86.39
23166;BME280;11751;42.700;24.170;2023-03-26T02:23:31;93330.97;;;10.58;87.62
23166;BME280;11751;42.700;24.170;2023-03-26T02:26:07;93335.56;;;10.46;84.95
23166;BME280;11751;42.700;24.170;2023-03-26T02:28:33;93336.63;;;10.51;85.24
23166;BME280;11751;42.700;24.170;2023-03-26T02:30:59;93335.56;;;10.46;85.51
23166;BME280;11751;42.700;24.170;2023-03-26T02:33:29;93329.78;;;10.44;82.47
23166;BME280;11751;42.700;24.170;2023-03-26T02:35:57;93330.44;;;10.35;83.61
23166;BME280;11751;42.700;24.170;2023-03-26T02:38:30;93337.69;;;10.22;85.53
23166;BME280;11751;42.700;24.170;2023-03-26T02:41:00;93319.25;;;10.35;85.44
23166;BME280;11751;42.700;24.170;2023-03-26T02:43:25;93343.88;;;10.37;87.47
23166;BME280;11751;42.700;24.170;2023-03-26T02:45:51;93353.28;;;10.24;89.11
23166;BME280;11751;42.700;24.170;2023-03-26T02:48:17;93336.91;;;10.21;89.03
23166;BME280;11751;42.700;24.170;2023-03-26T02:50:43;93342.63;;;9.82;91.38
23166;BME280;11751;42.700;24.170;2023-03-26T02:53:08;93326.81;;;9.77;92.43
23166;BME280;11751;42.700;24.170;2023-03-26T02:55:34;93332.53;;;9.86;91.70
23166;BME280;11751;42.700;24.170;2023-03-26T02:57:59;93314.75;;;9.99;89.76
23166;BME280;11751;42.700;24.170;2023-03-26T03:00:25;93327.41;;;10.00;89.09
23166;BME280;11751;42.700;24.170;2023-03-26T03:02:51;93331.13;;;9.95;88.91
23166;BME280;11751;42.700;24.170;2023-03-26T03:05:18;93330.00;;;9.98;88.38
23166;BME280;11751;42.700;24.170;2023-03-26T03:07:44;93333.63;;;9.91;87.21
23166;BME280;11751;42.700;24.170;2023-03-26T03:10:12;93340.50;;;9.90;87.84
23166;BME280;11751;42.700;24.170;2023-03-26T03:12:39;93329.31;;;9.65;89.19
23166;BME280;11751;42.700;24.170;2023-03-26T03:15:05;93335.50;;;9.64;89.01
23166;BME280;11751;42.700;24.170;2023-03-26T03:17:31;93355.56;;;9.70;90.79
23166;BME280;11751;42.700;24.170;2023-03-26T03:19:57;93328.13;;;9.76;90.63
23166;BME280;11751;42.700;24.170;2023-03-26T03:22:22;93345.88;;;9.71;89.23
23166;BME280;11751;42.700;24.170;2023-03-26T03:24:47;93354.72;;;9.84;87.01
23166;BME280;11751;42.700;24.170;2023-03-26T03:27:13;93360.34;;;9.77;88.37
23166;BME280;11751;42.700;24.170;2023-03-26T03:29:39;93364.31;;;9.74;87.81
23166;BME280;11751;42.700;24.170;2023-03-26T03:32:05;93365.63;;;9.73;85.16
23166;BME280;11751;42.700;24.170;2023-03-26T03:34:31;93378.28;;;9.74;83.88
23166;BME280;11751;42.700;24.170;2023-03-26T03:36:56;93395.56;;;9.80;81.90
23166;BME280;11751;42.700;24.170;2023-03-26T03:39:24;93389.00;;;9.85;80.92
23166;BME280;11751;42.700;24.170;2023-03-26T03:41:50;93375.34;;;9.64;82.33
23166;BME280;11751;42.700;24.170;2023-03-26T03:44:15;93393.34;;;9.78;81.81
23166;BME280;11751;42.700;24.170;2023-03-26T03:46:41;93412.53;;;9.82;81.49
23166;BME280;11751;42.700;24.170;2023-03-26T03:49:06;93413.88;;;9.73;83.37
23166;BME280;11751;42.700;24.170;2023-03-26T03:51:31;93402.31;;;9.69;83.11
23166;BME280;11751;42.700;24.170;2023-03-26T03:53:57;93391.03;;;9.60;83.48
23166;BME280;11751;42.700;24.170;2023-03-26T03:56:22;93400.13;;;9.68;82.70
23166;BME280;11751;42.700;24.170;2023-03-26T03:58:49;93414.63;;;9.74;82.42
23166;BME280;11751;42.700;24.170;2023-03-26T04:01:15;93399.94;;;9.66;82.52
23166;BME280;11751;42.700;24.170;2023-03-26T04:03:41;93407.81;;;9.60;81.50
23166;BME280;11751;42.700;24.170;2023-03-26T04:06:10;93416.03;;;9.50;81.54
23166;BME280;11751;42.700;24.170;2023-03-26T04:08:36;93414.88;;;9.61;82.46
23166;BME280;11751;42.700;24.170;2023-03-26T04:11:01;93427.44;;;9.77;82.74
23166;BME280;11751;42.700;24.170;2023-03-26T04:13:27;93430.84;;;9.68;82.49
23166;BME280;11751;42.700;24.170;2023-03-26T04:15:53;93435.38;;;9.56;82.05
23166;BME280;11751;42.700;24.170;2023-03-26T04:18:18;93445.34;;;9.42;79.06
23166;BME280;11751;42.700;24.170;2023-03-26T04:20:44;93449.66;;;9.28;77.57
23166;BME280;11751;42.700;24.170;2023-03-26T04:23:14;93447.44;;;9.27;77.85
23166;BME280;11751;42.700;24.170;2023-03-26T04:25:42;93457.38;;;9.05;77.54
23166;BME280;11751;42.700;24.170;2023-03-26T04:28:24;93473.56;;;9.14;76.27
23166;BME280;11751;42.700;24.170;2023-03-26T04:30:54;93464.97;;;9.20;77.56
23166;BME280;11751;42.700;24.170;2023-03-26T04:33:21;93465.13;;;9.22;77.97
23166;BME280;11751;42.700;24.170;2023-03-26T04:35:47;93460.13;;;9.20;77.35
23166;BME280;11751;42.700;24.170;2023-03-26T04:38:13;93477.66;;;9.13;77.93
23166;BME280;11751;42.700;24.170;2023-03-26T04:40:42;93480.25;;;9.11;75.92
23166;BME280;11751;42.700;24.170;2023-03-26T04:43:15;93480.97;;;9.19;76.39
23166;BME280;11751;42.700;24.170;2023-03-26T04:45:42;93492.16;;;9.19;76.97
23166;BME280;11751;42.700;24.170;2023-03-26T04:48:10;93491.03;;;9.22;76.10
23166;BME280;11751;42.700;24.170;2023-03-26T04:50:43;93491.03;;;9.22;75.76
23166;BME280;11751;42.700;24.170;2023-03-26T04:53:15;93489.88;;;9.25;74.58
23166;BME280;11751;42.700;24.170;2023-03-26T04:55:46;93489.16;;;9.32;73.65
23166;BME280;11751;42.700;24.170;2023-03-26T04:58:13;93494.03;;;9.17;72.95
23166;BME280;11751;42.700;24.170;2023-03-26T05:00:40;93497.72;;;9.27;75.83
23166;BME280;11751;42.700;24.170;2023-03-26T05:03:08;93483.91;;;9.36;72.74
23166;BME280;11751;42.700;24.170;2023-03-26T05:05:34;93500.97;;;9.55;74.66
23166;BME280;11751;42.700;24.170;2023-03-26T05:08:00;93500.22;;;9.62;72.83
23166;BME280;11751;42.700;24.170;2023-03-26T05:10:25;93512.16;;;9.55;72.22
23166;BME280;11751;42.700;24.170;2023-03-26T05:12:51;93514.72;;;9.68;72.56
23166;BME280;11751;42.700;24.170;2023-03-26T05:15:16;93520.31;;;9.68;72.62
23166;BME280;11751;42.700;24.170;2023-03-26T05:17:42;93514.66;;;9.83;72.87
23166;BME280;11751;42.700;24.170;2023-03-26T05:20:26;93515.19;;;9.89;71.82
23166;BME280;11751;42.700;24.170;2023-03-26T05:22:52;93532.94;;;9.84;72.23
23166;BME280;11751;42.700;24.170;2023-03-26T05:25:18;93528.38;;;9.96;71.97
23166;BME280;11751;42.700;24.170;2023-03-26T05:27:44;93523.94;;;9.93;71.04
23166;BME280;11751;42.700;24.170;2023-03-26T05:30:14;93541.78;;;10.05;70.51
23166;BME280;11751;42.700;24.170;2023-03-26T05:32:40;93537.94;;;10.24;70.70
23166;BME280;11751;42.700;24.170;2023-03-26T05:35:05;93540.31;;;10.35;69.82
23166;BME280;11751;42.700;24.170;2023-03-26T05:37:32;93538.91;;;10.51;71.23
23166;BME280;11751;42.700;24.170;2023-03-26T05:39:58;93530.59;;;10.68;71.29
23166;BME280;11751;42.700;24.170;2023-03-26T05:42:24;93539.88;;;10.71;69.70
23166;BME280;11751;42.700;24.170;2023-03-26T05:44:50;93539.84;;;10.78;65.28
23166;BME280;11751;42.700;24.170;2023-03-26T05:47:16;93543.22;;;11.01;66.19
23166;BME280;11751;42.700;24.170;2023-03-26T05:49:41;93545.81;;;11.23;66.10
23166;BME280;11751;42.700;24.170;2023-03-26T05:52:07;93533.16;;;11.15;64.66
23166;BME280;11751;42.700;24.170;2023-03-26T05:54:32;93533.00;;;11.54;64.01
23166;BME280;11751;42.700;24.170;2023-03-26T05:56:58;93534.88;;;11.86;62.58
23166;BME280;11751;42.700;24.170;2023-03-26T05:59:24;93517.97;;;11.76;61.09
23166;BME280;11751;42.700;24.170;2023-03-26T06:01:50;93549.56;;;11.77;60.58
23166;BME280;11751;42.700;24.170;2023-03-26T06:04:19;93543.59;;;11.39;60.23
23166;BME280;11751;42.700;24.170;2023-03-26T06:06:44;93564.63;;;11.06;60.39
23166;BME280;11751;42.700;24.170;2023-03-26T06:09:10;93560.97;;;10.96;61.65
23166;BME280;11751;42.700;24.170;2023-03-26T06:11:39;93543.56;;;11.22;60.59
23166;BME280;11751;42.700;24.170;2023-03-26T06:14:05;93549.59;;;11.60;61.07
23166;BME280;11751;42.700;24.170;2023-03-26T06:16:31;93547.19;;;11.73;59.97
23166;BME280;11751;42.700;24.170;2023-03-26T06:18:57;93546.59;;;11.75;58.65
23166;BME280;11751;42.700;24.170;2023-03-26T06:21:26;93544.88;;;11.79;61.02
23166;BME280;11751;42.700;24.170;2023-03-26T06:23:51;93544.78;;;11.87;59.25
23166;BME280;11751;42.700;24.170;2023-03-26T06:26:17;93550.19;;;12.01;59.65
23166;BME280;11751;42.700;24.170;2023-03-26T06:28:42;93551.53;;;12.17;59.65
23166;BME280;11751;42.700;24.170;2023-03-26T06:31:08;93550.34;;;12.20;59.57
23166;BME280;11751;42.700;24.170;2023-03-26T06:33:33;93553.34;;;12.05;56.44
23166;BME280;11751;42.700;24.170;2023-03-26T06:35:59;93544.31;;;12.24;56.01
23166;BME280;11751;42.700;24.170;2023-03-26T06:38:24;93552.00;;;12.23;55.31
23166;BME280;11751;42.700;24.170;2023-03-26T06:40:50;93555.78;;;12.35;56.26
23166;BME280;11751;42.700;24.170;2023-03-26T06:43:16;93541.94;;;12.47;55.94
23166;BME280;11751;42.700;24.170;2023-03-26T06:45:41;93559.69;;;12.49;56.96
23166;BME280;11751;42.700;24.170;2023-03-26T06:48:07;93551.66;;;12.36;56.25
23166;BME280;11751;42.700;24.170;2023-03-26T06:50:32;93554.72;;;12.31;57.18
23166;BME280;11751;42.700;24.170;2023-03-26T06:52:58;93552.53;;;12.39;56.76
23166;BME280;11751;42.700;24.170;2023-03-26T06:55:23;93557.50;;;12.31;55.06
23166;BME280;11751;42.700;24.170;2023-03-26T06:57:51;93552.97;;;12.35;55.36
23166;BME280;11751;42.700;24.170;2023-03-26T07:00:18;93549.59;;;12.20;53.69
23166;BME280;11751;42.700;24.170;2023-03-26T07:02:43;93560.69;;;12.44;54.99
23166;BME280;11751;42.700;24.170;2023-03-26T07:05:09;93556.06;;;12.39;54.76
23166;BME280;11751;42.700;24.170;2023-03-26T07:07:34;93559.59;;;12.57;56.01
23166;BME280;11751;42.700;24.170;2023-03-26T07:10:00;93554.38;;;12.79;53.96
23166;BME280;11751;42.700;24.170;2023-03-26T07:12:25;93557.47;;;12.74;54.68
23166;BME280;11751;42.700;24.170;2023-03-26T07:14:51;93550.13;;;12.88;52.25
23166;BME280;11751;42.700;24.170;2023-03-26T07:17:16;93539.13;;;12.99;53.65
23166;BME280;11751;42.700;24.170;2023-03-26T07:19:42;93553.75;;;12.98;53.88
23166;BME280;11751;42.700;24.170;2023-03-26T07:22:14;93553.59;;;12.96;52.09
23166;BME280;11751;42.700;24.170;2023-03-26T07:24:42;93548.13;;;12.98;52.44
23166;BME280;11751;42.700;24.170;2023-03-26T07:29:51;93547.19;;;13.22;51.15
23166;BME280;11751;42.700;24.170;2023-03-26T07:32:28;93548.28;;;13.45;49.59
23166;BME280;11751;42.700;24.170;2023-03-26T07:37:48;93532.44;;;13.50;48.82
23166;BME280;11751;42.700;24.170;2023-03-26T07:40:34;93537.22;;;13.94;48.36
23166;BME280;11751;42.700;24.170;2023-03-26T07:43:24;93525.97;;;13.94;48.92
23166;BME280;11751;42.700;24.170;2023-03-26T07:45:46;93519.88;;;13.88;45.93
23166;BME280;11751;42.700;24.170;2023-03-26T07:48:21;93518.69;;;13.63;46.14
23166;BME280;11751;42.700;24.170;2023-03-26T07:50:50;93527.31;;;13.93;46.49
23166;BME280;11751;42.700;24.170;2023-03-26T07:53:16;93521.38;;;14.27;46.98
23166;BME280;11751;42.700;24.170;2023-03-26T07:55:52;93507.41;;;14.48;46.41
23166;BME280;11751;42.700;24.170;2023-03-26T08:01:00;93505.47;;;14.51;44.47
23166;BME280;11751;42.700;24.170;2023-03-26T08:06:15;93504.78;;;14.80;42.91
23166;BME280;11751;42.700;24.170;2023-03-26T08:08:52;93515.28;;;15.20;42.60
23166;BME280;11751;42.700;24.170;2023-03-26T08:17:35;93530.50;;;15.05;39.14
23166;BME280;11751;42.700;24.170;2023-03-26T08:20:08;93504.59;;;14.88;38.99
23166;BME280;11751;42.700;24.170;2023-03-26T08:22:42;93517.03;;;14.45;39.46
23166;BME280;11751;42.700;24.170;2023-03-26T08:25:33;93532.50;;;14.84;40.48
23166;BME280;11751;42.700;24.170;2023-03-26T08:30:52;93522.84;;;15.27;41.98
23166;BME280;11751;42.700;24.170;2023-03-26T08:33:20;93534.19;;;15.47;40.35
23166;BME280;11751;42.700;24.170;2023-03-26T08:35:48;93531.72;;;15.33;39.50
23166;BME280;11751;42.700;24.170;2023-03-26T08:38:16;93537.72;;;15.48;40.18
23166;BME280;11751;42.700;24.170;2023-03-26T08:44:20;93531.91;;;15.55;41.08
23166;BME280;11751;42.700;24.170;2023-03-26T09:12:38;93518.59;;;15.67;36.11
23166;BME280;11751;42.700;24.170;2023-03-26T09:15:44;93505.34;;;16.12;35.77
23166;BME280;11751;42.700;24.170;2023-03-26T09:18:54;93500.03;;;16.06;37.01
23166;BME280;11751;42.700;24.170;2023-03-26T09:24:36;93501.34;;;16.26;37.06
23166;BME280;11751;42.700;24.170;2023-03-26T09:41:11;93505.81;;;16.84;37.01
23166;BME280;11751;42.700;24.170;2023-03-26T09:46:32;93505.00;;;17.05;36.70
23166;BME280;11751;42.700;24.170;2023-03-26T09:54:50;93490.41;;;16.00;36.90
23166;BME280;11751;42.700;24.170;2023-03-26T10:00:20;93476.81;;;16.84;37.09
23166;BME280;11751;42.700;24.170;2023-03-26T10:05:46;93473.88;;;17.05;34.77
23166;BME280;11751;42.700;24.170;2023-03-26T10:22:44;93442.63;;;17.96;34.67
23166;BME280;11751;42.700;24.170;2023-03-26T10:30:13;93448.31;;;17.85;32.93
23166;BME280;11751;42.700;24.170;2023-03-26T10:32:52;93442.25;;;17.90;33.33
23166;BME280;11751;42.700;24.170;2023-03-26T10:44:59;93414.59;;;17.77;33.37
23166;BME280;11751;42.700;24.170;2023-03-26T10:48:01;93421.44;;;17.49;32.35
23166;BME280;11751;42.700;24.170;2023-03-26T10:51:17;93414.44;;;17.50;32.88
23166;BME280;11751;42.700;24.170;2023-03-26T10:53:46;93408.44;;;17.44;33.42
23166;BME280;11751;42.700;24.170;2023-03-26T10:56:34;93399.94;;;17.44;33.06
23166;BME280;11751;42.700;24.170;2023-03-26T10:59:06;93402.75;;;17.44;32.60
23166;BME280;11751;42.700;24.170;2023-03-26T11:01:55;93393.72;;;17.59;31.68
23166;BME280;11751;42.700;24.170;2023-03-26T11:13:01;93400.03;;;17.58;30.73
23166;BME280;11751;42.700;24.170;2023-03-26T11:15:20;93385.13;;;17.57;29.89
23166;BME280;11751;42.700;24.170;2023-03-26T11:23:38;93377.63;;;17.87;32.00
23166;BME280;11751;42.700;24.170;2023-03-26T11:26:12;93382.13;;;18.03;31.51
23166;BME280;11751;42.700;24.170;2023-03-26T11:31:35;93359.56;;;18.05;31.90
23166;BME280;11751;42.700;24.170;2023-03-26T11:34:17;93377.13;;;17.90;31.87
23166;BME280;11751;42.700;24.170;2023-03-26T11:36:52;93359.09;;;17.97;31.90
23166;BME280;11751;42.700;24.170;2023-03-26T11:39:25;93365.44;;;18.09;30.53
23166;BME280;11751;42.700;24.170;2023-03-26T11:42:04;93374.16;;;17.88;31.18
23166;BME280;11751;42.700;24.170;2023-03-26T11:44:37;93360.47;;;17.96;30.57
23166;BME280;11751;42.700;24.170;2023-03-26T11:47:06;93349.81;;;18.08;31.78
23166;BME280;11751;42.700;24.170;2023-03-26T11:49:35;93362.97;;;18.15;30.89
23166;BME280;11751;42.700;24.170;2023-03-26T11:52:01;93365.00;;;18.26;30.42
23166;BME280;11751;42.700;24.170;2023-03-26T11:54:28;93364.94;;;18.37;31.30
23166;BME280;11751;42.700;24.170;2023-03-26T11:57:00;93364.88;;;18.49;30.39
23166;BME280;11751;42.700;24.170;2023-03-26T11:59:29;93314.63;;;18.24;29.75
23166;BME280;11751;42.700;24.170;2023-03-26T12:02:16;93357.31;;;18.15;29.81
23166;BME280;11751;42.700;24.170;2023-03-26T12:04:43;93345.97;;;18.15;28.27
23166;BME280;11751;42.700;24.170;2023-03-26T12:07:21;93331.88;;;18.17;28.57
23166;BME280;11751;42.700;24.170;2023-03-26T12:10:01;93316.00;;;18.37;29.14
23166;BME280;11751;42.700;24.170;2023-03-26T12:12:37;93321.53;;;18.21;27.01
23166;BME280;11751;42.700;24.170;2023-03-26T12:15:07;93323.50;;;18.19;26.91
23166;BME280;11751;42.700;24.170;2023-03-26T12:17:37;93318.22;;;18.25;27.32
23166;BME280;11751;42.700;24.170;2023-03-26T12:22:52;93315.47;;;18.02;27.37
23166;BME280;11751;42.700;24.170;2023-03-26T12:25:19;93314.94;;;17.92;27.57
23166;BME280;11751;42.700;24.170;2023-03-26T12:27:50;93312.31;;;17.96;27.38
23166;BME280;11751;42.700;24.170;2023-03-26T12:30:25;93294.66;;;17.84;26.28
23166;BME280;11751;42.700;24.170;2023-03-26T12:33:03;93300.25;;;17.96;27.79
23166;BME280;11751;42.700;24.170;2023-03-26T12:35:31;93293.25;;;18.10;28.83
23166;BME280;11751;42.700;24.170;2023-03-26T12:38:32;93284.88;;;18.12;27.99
23166;BME280;11751;42.700;24.170;2023-03-26T12:46:21;93288.00;;;18.04;26.82
23166;BME280;11751;42.700;24.170;2023-03-26T12:48:49;93283.00;;;17.92;27.25
23166;BME280;11751;42.700;24.170;2023-03-26T12:54:09;93284.81;;;18.23;27.44
23166;BME280;11751;42.700;24.170;2023-03-26T12:56:58;93276.63;;;17.91;27.15
23166;BME280;11751;42.700;24.170;2023-03-26T13:05:48;93281.38;;;18.25;28.61
23166;BME280;11751;42.700;24.170;2023-03-26T13:16:17;93253.66;;;18.37;28.67
23166;BME280;11751;42.700;24.170;2023-03-26T13:19:00;93239.28;;;18.46;28.83
23166;BME280;11751;42.700;24.170;2023-03-26T13:24:20;93247.44;;;18.27;27.84
23166;BME280;11751;42.700;24.170;2023-03-26T13:30:00;93243.38;;;18.30;27.92
23166;BME280;11751;42.700;24.170;2023-03-26T13:35:35;93247.94;;;17.72;28.68
23166;BME280;11751;42.700;24.170;2023-03-26T13:38:12;93248.94;;;17.65;28.44
23166;BME280;11751;42.700;24.170;2023-03-26T13:43:30;93239.22;;;17.68;28.69
23166;BME280;11751;42.700;24.170;2023-03-26T13:48:56;93237.56;;;17.76;27.21
23166;BME280;11751;42.700;24.170;2023-03-26T13:51:32;93243.09;;;17.61;28.32
23166;BME280;11751;42.700;24.170;2023-03-26T13:54:12;93243.44;;;17.80;29.13
23166;BME280;11751;42.700;24.170;2023-03-26T13:56:48;93240.22;;;17.86;28.63
23166;BME280;11751;42.700;24.170;2023-03-26T14:02:15;93229.69;;;18.13;28.93
23166;BME280;11751;42.700;24.170;2023-03-26T14:04:49;93242.16;;;18.08;28.73
23166;BME280;11751;42.700;24.170;2023-03-26T14:10:16;93234.31;;;18.20;29.16
23166;BME280;11751;42.700;24.170;2023-03-26T14:15:21;93241.97;;;18.17;29.25
23166;BME280;11751;42.700;24.170;2023-03-26T14:36:39;93229.03;;;18.01;30.38
23166;BME280;11751;42.700;24.170;2023-03-26T14:53:28;93221.44;;;17.54;34.95
23166;BME280;11751;42.700;24.170;2023-03-26T15:01:25;93215.63;;;17.38;35.32
23166;BME280;11751;42.700;24.170;2023-03-26T15:10:09;93210.50;;;17.23;35.81
23166;BME280;11751;42.700;24.170;2023-03-26T15:12:45;93210.75;;;17.27;34.96
23166;BME280;11751;42.700;24.170;2023-03-26T15:55:32;93245.59;;;16.71;33.64
23166;BME280;11751;42.700;24.170;2023-03-26T15:58:14;93244.88;;;16.70;33.36
23166;BME280;11751;42.700;24.170;2023-03-26T16:03:56;93260.13;;;16.54;33.32
23166;BME280;11751;42.700;24.170;2023-03-26T16:06:35;93261.84;;;16.36;33.87
23166;BME280;11751;42.700;24.170;2023-03-26T16:14:23;93265.03;;;16.19;34.88
23166;BME280;11751;42.700;24.170;2023-03-26T16:17:04;93259.38;;;16.19;35.44
23166;BME280;11751;42.700;24.170;2023-03-26T16:22:52;93259.31;;;15.73;35.25
23166;BME280;11751;42.700;24.170;2023-03-26T16:30:31;93262.69;;;15.38;36.12
23166;BME280;11751;42.700;24.170;2023-03-26T16:33:13;93262.69;;;15.38;36.64
23166;BME280;11751;42.700;24.170;2023-03-26T16:35:41;93264.38;;;15.42;36.10
23166;BME280;11751;42.700;24.170;2023-03-26T16:38:14;93264.38;;;15.31;36.38
23166;BME280;11751;42.700;24.170;2023-03-26T16:41:14;93269.47;;;15.23;37.12
23166;BME280;11751;42.700;24.170;2023-03-26T16:43:42;93271.28;;;15.19;37.41
23166;BME280;11751;42.700;24.170;2023-03-26T16:46:32;93278.00;;;15.14;37.56
23166;BME280;11751;42.700;24.170;2023-03-26T16:49:19;93279.78;;;14.98;38.17
23166;BME280;11751;42.700;24.170;2023-03-26T16:52:31;93281.53;;;14.82;38.59
23166;BME280;11751;42.700;24.170;2023-03-26T16:55:15;93274.94;;;14.89;38.64
23166;BME280;11751;42.700;24.170;2023-03-26T16:57:56;93269.84;;;14.76;39.15
23166;BME280;11751;42.700;24.170;2023-03-26T17:00:35;93267.97;;;14.69;39.16
23166;BME280;11751;42.700;24.170;2023-03-26T17:03:26;93282.03;;;14.48;38.54
23166;BME280;11751;42.700;24.170;2023-03-26T17:06:05;93277.88;;;14.49;39.05
23166;BME280;11751;42.700;24.170;2023-03-26T17:20:01;93296.78;;;13.97;41.71
23166;BME280;11751;42.700;24.170;2023-03-26T17:22:44;93298.47;;;13.81;42.21
23166;BME280;11751;42.700;24.170;2023-03-26T17:35:50;93304.66;;;13.31;45.10
23166;BME280;11751;42.700;24.170;2023-03-26T17:40:58;93311.75;;;13.22;45.62
23166;BME280;11751;42.700;24.170;2023-03-26T17:43:46;93319.31;;;13.01;46.53
23166;BME280;11751;42.700;24.170;2023-03-26T17:46:35;93310.16;;;13.00;45.89
23166;BME280;11751;42.700;24.170;2023-03-26T17:52:02;93322.00;;;12.89;46.52
23166;BME280;11751;42.700;24.170;2023-03-26T17:54:33;93327.84;;;12.65;47.08
23166;BME280;11751;42.700;24.170;2023-03-26T17:57:05;93327.53;;;12.52;47.48
23166;BME280;11751;42.700;24.170;2023-03-26T17:59:35;93324.69;;;12.42;47.48
23166;BME280;11751;42.700;24.170;2023-03-26T18:02:03;93327.22;;;12.38;47.33
23166;BME280;11751;42.700;24.170;2023-03-26T18:04:37;93323.06;;;12.39;47.23
23166;BME280;11751;42.700;24.170;2023-03-26T18:10:13;93329.31;;;12.47;47.31
23166;BME280;11751;42.700;24.170;2023-03-26T18:18:32;93321.28;;;12.34;47.49
23166;BME280;11751;42.700;24.170;2023-03-26T18:21:03;93298.88;;;11.98;48.51
23166;BME280;11751;42.700;24.170;2023-03-26T18:23:39;93319.41;;;12.10;49.41
23166;BME280;11751;42.700;24.170;2023-03-26T18:28:44;93316.63;;;12.10;49.74
23166;BME280;11751;42.700;24.170;2023-03-26T18:31:24;93326.75;;;11.96;50.03
23166;BME280;11751;42.700;24.170;2023-03-26T18:33:54;93339.50;;;12.07;50.09
23166;BME280;11751;42.700;24.170;2023-03-26T18:36:23;93339.03;;;12.01;51.14
23166;BME280;11751;42.700;24.170;2023-03-26T18:38:55;93342.13;;;11.95;50.79
23166;BME280;11751;42.700;24.170;2023-03-26T18:41:28;93338.91;;;11.73;50.85
23166;BME280;11751;42.700;24.170;2023-03-26T18:44:00;93334.59;;;11.72;51.70